createdAt,value
2023-03-07T00:00:16.317Z,58.53
2023-03-07T00:02:46.299Z,58.50
2023-03-07T00:05:13.080Z,58.45
2023-03-07T00:07:39.668Z,58.65
2023-03-07T00:10:09.682Z,58.63
2023-03-07T00:12:37.417Z,58.58
2023-03-07T00:15:04.381Z,58.72
2023-03-07T00:17:33.430Z,58.31
2023-03-07T00:20:01.938Z,58.72
2023-03-07T00:22:28.702Z,58.59
2023-03-07T00:24:55.566Z,58.64
2023-03-07T00:27:22.346Z,58.66
2023-03-07T00:29:49.236Z,58.71
2023-03-07T00:32:18.001Z,59.00
2023-03-07T00:34:44.828Z,58.92
2023-03-07T00:37:11.403Z,58.65
2023-03-07T00:39:40.644Z,58.85
2023-03-07T00:42:08.502Z,58.89
2023-03-07T00:44:36.403Z,58.61
2023-03-07T00:47:03.736Z,58.79
2023-03-07T00:49:30.469Z,58.99
2023-03-07T00:51:57.333Z,59.00
2023-03-07T00:54:24.954Z,58.96
2023-03-07T00:56:51.684Z,58.98
2023-03-07T00:59:19.779Z,59.13
2023-03-07T01:01:46.396Z,59.23
2023-03-07T01:04:13.366Z,59.16
2023-03-07T01:06:40.052Z,59.18
2023-03-07T01:09:08.735Z,58.91
2023-03-07T01:11:38.060Z,58.86
2023-03-07T01:14:06.341Z,58.69
2023-03-07T01:16:36.914Z,58.29
2023-03-07T01:19:06.721Z,58.09
2023-03-07T01:21:38.077Z,57.09
2023-03-07T01:24:10.405Z,56.93
2023-03-07T01:26:37.699Z,57.62
2023-03-07T01:29:11.063Z,57.51
2023-03-07T01:31:38.041Z,58.03
2023-03-07T01:34:05.738Z,57.75
2023-03-07T01:36:36.367Z,57.83
2023-03-07T01:39:13.309Z,55.95
2023-03-07T01:41:53.857Z,57.57
2023-03-07T01:44:25.624Z,57.68
2023-03-07T01:46:54.709Z,57.43
2023-03-07T01:49:44.961Z,54.38
2023-03-07T01:52:15.951Z,56.83
2023-03-07T01:54:54.573Z,56.02
2023-03-07T01:57:29.440Z,56.23
2023-03-07T01:59:58.967Z,57.00
2023-03-07T02:02:26.189Z,57.16
2023-03-07T02:05:00.804Z,55.81
2023-03-07T02:07:33.389Z,56.34
2023-03-07T02:10:00.933Z,56.79
2023-03-07T02:12:28.034Z,57.17
2023-03-07T02:14:55.808Z,56.63
2023-03-07T02:17:22.849Z,56.85
2023-03-07T02:20:23.818Z,55.09
2023-03-07T02:22:50.935Z,56.30
2023-03-07T02:25:24.091Z,56.15
2023-03-07T02:27:53.814Z,56.42
2023-03-07T02:30:21.649Z,56.40
2023-03-07T02:32:50.704Z,56.41
2023-03-07T02:35:21.157Z,55.81
2023-03-07T02:37:55.514Z,56.11
2023-03-07T02:40:29.582Z,56.23
2023-03-07T02:42:59.025Z,56.44
2023-03-07T02:45:25.643Z,56.52
2023-03-07T02:47:52.108Z,56.32
2023-03-07T02:50:18.746Z,56.25
2023-03-07T02:52:49.409Z,56.35
2023-03-07T02:55:15.935Z,56.45
2023-03-07T02:57:48.298Z,56.67
2023-03-07T03:00:15.253Z,56.13
2023-03-07T03:02:42.009Z,55.65
2023-03-07T03:05:08.785Z,55.85
2023-03-07T03:07:35.574Z,55.82
2023-03-07T03:10:02.368Z,55.38
2023-03-07T03:12:31.513Z,55.84
2023-03-07T03:14:58.858Z,55.65
2023-03-07T03:17:25.416Z,56.05
2023-03-07T03:19:51.926Z,56.27
2023-03-07T03:22:18.428Z,56.02
2023-03-07T03:24:47.526Z,55.94
2023-03-07T03:27:16.792Z,55.94
2023-03-07T03:29:44.765Z,56.35
2023-03-07T03:32:12.185Z,56.40
2023-03-07T03:34:40.150Z,54.52
2023-03-07T03:37:06.697Z,56.25
2023-03-07T03:39:33.318Z,56.01
2023-03-07T03:42:00.124Z,56.15
2023-03-07T03:44:27.053Z,56.34
2023-03-07T03:46:54.065Z,56.22
2023-03-07T03:49:22.299Z,52.94
2023-03-07T03:51:50.941Z,56.33
2023-03-07T03:54:18.227Z,55.86
2023-03-07T03:56:44.757Z,55.84
2023-03-07T03:59:11.340Z,56.17
2023-03-07T04:01:38.009Z,55.88
2023-03-07T04:04:05.179Z,55.16
2023-03-07T04:06:34.724Z,55.36
2023-03-07T04:09:02.368Z,55.70
2023-03-07T04:11:28.871Z,55.39
2023-03-07T04:13:55.590Z,55.94
2023-03-07T04:16:23.436Z,55.74
2023-03-07T04:18:50.332Z,55.98
2023-03-07T04:21:17.121Z,55.80
2023-03-07T04:23:43.870Z,55.69
2023-03-07T04:26:11.550Z,55.75
2023-03-07T04:28:41.651Z,55.61
2023-03-07T04:31:09.214Z,55.49
2023-03-07T04:33:36.133Z,55.52
2023-03-07T04:36:02.828Z,54.40
2023-03-07T04:38:29.362Z,54.42
2023-03-07T04:40:56.309Z,54.59
2023-03-07T04:43:23.044Z,54.99
2023-03-07T04:45:49.817Z,54.46
2023-03-07T04:48:16.405Z,54.96
2023-03-07T04:50:43.054Z,54.06
2023-03-07T04:53:09.718Z,54.57
2023-03-07T04:55:36.401Z,54.88
2023-03-07T04:58:04.836Z,54.87
2023-03-07T05:00:31.339Z,54.62
2023-03-07T05:02:57.942Z,54.95
2023-03-07T05:05:24.658Z,54.98
2023-03-07T05:07:51.126Z,55.12
2023-03-07T05:10:17.906Z,54.99
2023-03-07T05:12:44.481Z,55.02
2023-03-07T05:15:11.784Z,55.14
2023-03-07T05:17:38.830Z,54.99
2023-03-07T05:20:06.183Z,55.35
2023-03-07T05:22:34.873Z,55.08
2023-03-07T05:25:01.407Z,55.07
2023-03-07T05:27:28.181Z,55.24
2023-03-07T05:29:54.708Z,55.16
2023-03-07T05:32:21.523Z,55.19
2023-03-07T05:34:48.193Z,55.38
2023-03-07T05:37:15.326Z,55.55
2023-03-07T05:39:41.905Z,55.54
2023-03-07T05:42:08.492Z,55.54
2023-03-07T05:44:36.545Z,54.03
2023-03-07T05:47:04.807Z,55.74
2023-03-07T05:49:32.580Z,55.95
2023-03-07T05:51:59.429Z,55.90
2023-03-07T05:54:26.454Z,56.18
2023-03-07T05:56:53.106Z,56.30
2023-03-07T05:59:20.412Z,56.48
2023-03-07T06:01:49.427Z,56.65
2023-03-07T06:04:16.055Z,56.57
2023-03-07T06:06:42.571Z,56.88
2023-03-07T06:09:10.149Z,56.84
2023-03-07T06:11:37.477Z,56.97
2023-03-07T06:14:04.317Z,57.23
2023-03-07T06:16:30.871Z,57.23
2023-03-07T06:19:02.599Z,56.99
2023-03-07T06:21:29.232Z,57.18
2023-03-07T06:23:57.960Z,57.19
2023-03-07T06:26:24.530Z,57.34
2023-03-07T06:28:53.585Z,57.49
2023-03-07T06:31:21.210Z,57.46
2023-03-07T06:33:48.628Z,57.80
2023-03-07T06:36:19.265Z,57.71
2023-03-07T06:38:49.591Z,57.98
2023-03-07T06:41:16.480Z,58.12
2023-03-07T06:43:43.193Z,58.19
2023-03-07T06:46:09.935Z,58.35
2023-03-07T06:48:39.812Z,58.60
2023-03-07T06:51:10.794Z,58.79
2023-03-07T06:53:40.353Z,58.74
2023-03-07T06:56:07.400Z,58.98
2023-03-07T06:58:35.186Z,59.06
2023-03-07T07:01:02.492Z,59.36
2023-03-07T07:03:30.064Z,59.29
2023-03-07T07:05:56.646Z,58.98
2023-03-07T07:08:23.178Z,58.79
2023-03-07T07:10:49.745Z,58.66
2023-03-07T07:13:16.575Z,58.58
2023-03-07T07:15:43.288Z,58.70
2023-03-07T07:18:12.616Z,55.93
2023-03-07T07:20:39.113Z,58.10
2023-03-07T07:23:06.027Z,58.08
2023-03-07T07:25:32.850Z,58.31
2023-03-07T07:27:59.487Z,58.49
2023-03-07T07:30:26.945Z,58.49
2023-03-07T07:32:53.658Z,58.60
2023-03-07T07:35:21.808Z,58.57
2023-03-07T07:37:48.353Z,58.47
2023-03-07T07:40:14.991Z,58.17
2023-03-07T07:42:42.617Z,58.52
2023-03-07T07:45:18.049Z,58.52
2023-03-07T07:47:44.907Z,57.81
2023-03-07T07:50:11.496Z,57.61
2023-03-07T07:52:38.114Z,57.85
2023-03-07T07:55:05.185Z,57.81
2023-03-07T07:57:31.671Z,58.04
2023-03-07T07:59:58.757Z,57.10
2023-03-07T08:02:25.480Z,56.46
2023-03-07T08:04:52.101Z,56.56
2023-03-07T08:07:18.560Z,56.76
2023-03-07T08:09:45.012Z,56.82
2023-03-07T08:12:12.325Z,56.67
2023-03-07T08:14:39.964Z,56.49
2023-03-07T08:17:06.589Z,56.42
2023-03-07T08:19:33.285Z,56.66
2023-03-07T08:22:00.437Z,55.59
2023-03-07T08:24:39.753Z,55.53
2023-03-07T08:27:07.021Z,54.93
2023-03-07T08:29:33.486Z,54.23
2023-03-07T08:31:59.956Z,53.62
2023-03-07T08:34:26.433Z,53.87
2023-03-07T08:36:52.886Z,53.16
2023-03-07T08:39:19.396Z,53.98
2023-03-07T08:41:45.859Z,54.01
2023-03-07T08:44:12.447Z,53.11
2023-03-07T08:46:38.981Z,52.98
2023-03-07T08:49:05.564Z,52.75
2023-03-07T08:51:32.087Z,52.25
2023-03-07T08:53:58.660Z,47.99
2023-03-07T08:56:25.316Z,49.53
2023-03-07T08:58:53.418Z,48.50
2023-03-07T09:01:19.943Z,48.91
2023-03-07T09:03:46.624Z,47.63
2023-03-07T09:06:19.190Z,46.60
2023-03-07T09:08:46.539Z,48.61
2023-03-07T09:11:13.713Z,47.90
2023-03-07T09:13:51.086Z,48.67
2023-03-07T09:16:18.786Z,49.17
2023-03-07T09:18:45.296Z,49.45
2023-03-07T09:21:11.823Z,49.16
2023-03-07T09:23:38.407Z,48.79
2023-03-07T09:26:05.054Z,49.08
2023-03-07T09:28:31.685Z,47.26
2023-03-07T09:30:58.147Z,48.30
2023-03-07T09:33:24.675Z,46.43
2023-03-07T09:35:51.287Z,46.41
2023-03-07T09:38:17.958Z,45.56
2023-03-07T09:40:47.192Z,44.66
2023-03-07T09:43:19.337Z,43.66
2023-03-07T09:46:20.365Z,44.11
2023-03-07T09:49:00.796Z,44.32
2023-03-07T09:51:37.957Z,45.28
2023-03-07T09:54:12.311Z,44.83
2023-03-07T09:56:55.536Z,46.08
2023-03-07T10:00:00.662Z,47.03
2023-03-07T10:02:43.580Z,44.90
2023-03-07T10:05:35.241Z,45.63
2023-03-07T10:08:02.531Z,45.56
2023-03-07T10:10:37.758Z,46.21
2023-03-07T10:13:19.533Z,45.73
2023-03-07T10:15:49.707Z,45.57
2023-03-07T10:18:34.681Z,42.59
2023-03-07T10:21:12.765Z,41.60
2023-03-07T10:23:42.302Z,46.60
2023-03-07T10:26:12.993Z,46.50
2023-03-07T10:28:42.868Z,46.08
2023-03-07T10:31:38.172Z,44.86
2023-03-07T10:34:32.713Z,42.05
2023-03-07T10:37:13.910Z,41.30
2023-03-07T10:39:44.591Z,44.05
2023-03-07T10:42:13.592Z,41.75
2023-03-07T10:44:40.771Z,42.48
2023-03-07T10:47:14.852Z,42.99
2023-03-07T10:49:46.344Z,41.73
2023-03-07T10:52:18.700Z,42.29
2023-03-07T10:54:45.370Z,41.10
2023-03-07T10:57:17.102Z,41.31
2023-03-07T10:59:46.081Z,43.52
2023-03-07T11:02:38.370Z,43.86
2023-03-07T11:05:24.374Z,42.61
2023-03-07T11:07:50.857Z,42.42
2023-03-07T11:10:38.713Z,40.23
2023-03-07T11:13:13.988Z,42.92
2023-03-07T11:15:40.744Z,43.51
2023-03-07T11:18:36.458Z,39.15
2023-03-07T11:21:03.346Z,41.90
2023-03-07T11:23:30.947Z,43.42
2023-03-07T11:26:15.643Z,39.77
2023-03-07T11:28:42.484Z,42.86
2023-03-07T11:31:53.170Z,42.07
2023-03-07T11:34:30.954Z,42.06
2023-03-07T11:37:13.745Z,40.12
2023-03-07T11:39:55.587Z,40.66
2023-03-07T11:42:28.688Z,41.11
2023-03-07T11:45:31.404Z,42.46
2023-03-07T11:48:05.350Z,42.44
2023-03-07T11:50:32.842Z,43.12
2023-03-07T11:53:56.537Z,42.20
2023-03-07T11:56:35.894Z,42.74
2023-03-07T11:59:36.581Z,38.42
2023-03-07T12:02:20.803Z,41.95
2023-03-07T12:05:02.232Z,42.02
2023-03-07T12:08:01.018Z,38.41
2023-03-07T12:10:46.876Z,43.09
2023-03-07T12:13:25.567Z,42.75
2023-03-07T12:16:17.862Z,43.11
2023-03-07T12:19:10.264Z,39.01
2023-03-07T12:22:11.383Z,41.00
2023-03-07T12:24:45.458Z,41.84
2023-03-07T12:27:16.936Z,42.82
2023-03-07T12:29:50.553Z,42.96
2023-03-07T12:32:22.845Z,44.18
2023-03-07T12:35:21.810Z,39.43
2023-03-07T12:37:55.401Z,41.58
2023-03-07T12:40:28.968Z,40.71
2023-03-07T12:43:33.819Z,39.74
2023-03-07T12:46:04.068Z,39.52
2023-03-07T12:48:54.525Z,42.50
2023-03-07T12:51:41.330Z,42.85
2023-03-07T12:54:34.071Z,42.59
2023-03-07T12:57:27.954Z,41.76
2023-03-07T12:59:59.694Z,41.25
2023-03-07T13:02:33.806Z,42.03
2023-03-07T13:05:00.650Z,37.71
2023-03-07T13:07:29.769Z,41.31
2023-03-07T13:09:59.257Z,40.29
2023-03-07T13:12:28.724Z,37.91
2023-03-07T13:14:57.793Z,40.69
2023-03-07T13:17:30.528Z,38.59
2023-03-07T13:20:24.443Z,39.39
2023-03-07T13:22:50.992Z,42.71
2023-03-07T13:25:20.052Z,41.52
2023-03-07T13:27:50.332Z,40.72
2023-03-07T13:30:29.756Z,41.41
2023-03-07T13:32:57.864Z,41.33
2023-03-07T13:35:24.337Z,40.64
2023-03-07T13:38:01.953Z,41.76
2023-03-07T13:40:37.092Z,42.07
2023-03-07T13:43:27.870Z,42.34
2023-03-07T13:45:59.693Z,42.78
2023-03-07T13:48:28.990Z,41.44
2023-03-07T13:50:55.420Z,41.80
2023-03-07T13:53:33.838Z,39.02
2023-03-07T13:56:15.722Z,39.48
2023-03-07T13:59:03.242Z,40.26
2023-03-07T14:01:35.773Z,41.85
2023-03-07T14:04:11.475Z,41.10
2023-03-07T14:06:40.301Z,41.63
2023-03-07T14:09:13.213Z,41.72
2023-03-07T14:11:55.671Z,40.89
2023-03-07T14:14:50.213Z,41.25
2023-03-07T14:17:32.640Z,40.42
2023-03-07T14:20:28.089Z,41.47
2023-03-07T14:23:01.423Z,36.58
2023-03-07T14:25:40.518Z,40.49
2023-03-07T14:28:25.138Z,40.66
2023-03-07T14:30:57.212Z,39.96
2023-03-07T14:33:30.771Z,40.05
2023-03-07T14:35:57.438Z,40.26
2023-03-07T14:38:26.794Z,40.42
2023-03-07T14:41:11.604Z,37.37
2023-03-07T14:43:55.596Z,39.83
2023-03-07T14:47:00.169Z,40.94
2023-03-07T14:49:45.690Z,40.59
2023-03-07T14:52:29.667Z,41.57
2023-03-07T14:55:01.026Z,39.20
2023-03-07T14:57:39.405Z,39.40
2023-03-07T15:00:20.779Z,37.27
2023-03-07T15:03:04.157Z,39.55
2023-03-07T15:05:33.609Z,39.39
2023-03-07T15:08:00.347Z,40.50
2023-03-07T15:10:34.745Z,39.97
2023-03-07T15:13:05.160Z,40.45
2023-03-07T15:15:39.769Z,40.31
2023-03-07T15:18:29.403Z,40.89
2023-03-07T15:20:58.475Z,42.07
2023-03-07T15:23:27.826Z,41.33
2023-03-07T15:26:00.869Z,41.46
2023-03-07T15:28:31.816Z,41.45
2023-03-07T15:30:58.545Z,41.16
2023-03-07T15:33:26.981Z,40.34
2023-03-07T15:36:24.335Z,39.56
2023-03-07T15:38:53.003Z,40.69
2023-03-07T15:41:32.113Z,39.77
2023-03-07T15:44:10.648Z,40.42
2023-03-07T15:46:52.490Z,39.21
2023-03-07T15:49:33.498Z,40.30
2023-03-07T15:52:00.101Z,40.32
2023-03-07T15:54:36.623Z,38.17
2023-03-07T15:57:16.040Z,38.04
2023-03-07T15:59:50.161Z,39.97
2023-03-07T16:02:36.898Z,40.88
2023-03-07T16:05:23.745Z,40.16
2023-03-07T16:07:52.096Z,41.25
2023-03-07T16:10:19.327Z,41.47
2023-03-07T16:12:48.326Z,41.26
2023-03-07T16:15:16.781Z,41.95
2023-03-07T16:17:44.140Z,42.12
2023-03-07T16:20:15.652Z,40.67
2023-03-07T16:22:44.319Z,41.76
2023-03-07T16:25:11.026Z,39.05
2023-03-07T16:27:38.132Z,39.87
2023-03-07T16:30:15.950Z,40.23
2023-03-07T16:32:42.853Z,40.52
2023-03-07T16:35:18.500Z,38.95
2023-03-07T16:37:46.002Z,40.44
2023-03-07T16:40:14.443Z,40.51
2023-03-07T16:42:47.002Z,38.84
2023-03-07T16:45:26.062Z,39.57
2023-03-07T16:47:54.841Z,40.97
2023-03-07T16:50:30.390Z,40.93
2023-03-07T16:52:57.132Z,40.96
2023-03-07T16:55:24.478Z,40.96
2023-03-07T16:57:59.507Z,39.90
2023-03-07T17:00:27.367Z,41.76
2023-03-07T17:02:57.280Z,41.18
2023-03-07T17:05:26.416Z,41.94
2023-03-07T17:07:54.577Z,42.21
2023-03-07T17:10:21.647Z,41.39
2023-03-07T17:12:49.305Z,42.59
2023-03-07T17:15:21.814Z,41.76
2023-03-07T17:17:48.522Z,43.39
2023-03-07T17:20:19.701Z,42.97
2023-03-07T17:22:46.681Z,43.71
2023-03-07T17:25:13.587Z,43.32
2023-03-07T17:27:52.746Z,41.32
2023-03-07T17:30:27.950Z,43.16
2023-03-07T17:32:54.889Z,43.71
2023-03-07T17:35:22.100Z,44.14
2023-03-07T17:37:52.781Z,44.06
2023-03-07T17:40:20.369Z,43.74
2023-03-07T17:42:49.625Z,43.04
2023-03-07T17:45:16.697Z,43.81
2023-03-07T17:47:43.338Z,44.00
2023-03-07T17:50:10.834Z,44.19
2023-03-07T17:52:37.372Z,44.49
2023-03-07T17:55:09.322Z,44.44
2023-03-07T17:57:36.300Z,44.63
2023-03-07T18:00:04.937Z,44.50
2023-03-07T18:02:39.589Z,44.88
2023-03-07T18:05:07.192Z,45.05
2023-03-07T18:07:34.005Z,45.16
2023-03-07T18:10:07.814Z,45.19
2023-03-07T18:12:35.078Z,45.35
2023-03-07T18:15:01.809Z,45.42
2023-03-07T18:17:38.448Z,45.41
2023-03-07T18:20:13.240Z,45.70
2023-03-07T18:22:40.123Z,45.90
2023-03-07T18:25:09.016Z,46.00
2023-03-07T18:27:35.484Z,46.22
2023-03-07T18:30:02.541Z,46.14
2023-03-07T18:32:29.346Z,46.19
2023-03-07T18:34:56.052Z,46.18
2023-03-07T18:37:22.917Z,46.48
2023-03-07T18:39:49.386Z,46.53
2023-03-07T18:42:15.949Z,46.33
2023-03-07T18:44:42.405Z,46.49
2023-03-07T18:47:09.068Z,46.29
2023-03-07T18:49:35.607Z,46.10
2023-03-07T18:52:03.170Z,46.41
2023-03-07T18:54:29.706Z,46.73
2023-03-07T18:56:56.178Z,46.83
2023-03-07T18:59:22.781Z,47.05
2023-03-07T19:01:49.330Z,47.30
2023-03-07T19:04:17.353Z,47.61
2023-03-07T19:06:44.464Z,47.62
2023-03-07T19:09:20.678Z,47.52
2023-03-07T19:11:47.735Z,48.04
2023-03-07T19:14:14.865Z,48.03
2023-03-07T19:16:41.521Z,48.05
2023-03-07T19:19:08.250Z,48.33
2023-03-07T19:21:35.070Z,48.39
2023-03-07T19:24:01.781Z,48.37
2023-03-07T19:26:28.460Z,48.46
2023-03-07T19:28:56.583Z,48.62
2023-03-07T19:31:26.463Z,48.67
2023-03-07T19:33:53.513Z,48.91
2023-03-07T19:36:22.857Z,48.98
2023-03-07T19:38:50.815Z,49.23
2023-03-07T19:41:20.297Z,49.04
2023-03-07T19:43:46.837Z,49.57
2023-03-07T19:46:15.177Z,49.68
2023-03-07T19:48:41.960Z,49.73
2023-03-07T19:51:16.956Z,49.42
2023-03-07T19:53:45.069Z,49.75
2023-03-07T19:56:12.736Z,49.40
2023-03-07T19:58:39.249Z,50.25
2023-03-07T20:01:10.513Z,50.14
2023-03-07T20:03:38.007Z,50.59
2023-03-07T20:06:06.638Z,51.02
2023-03-07T20:08:33.594Z,51.29
2023-03-07T20:11:11.699Z,51.18
2023-03-07T20:13:38.737Z,51.81
2023-03-07T20:16:05.910Z,52.04
2023-03-07T20:18:33.156Z,52.32
2023-03-07T20:21:05.283Z,52.17
2023-03-07T20:23:32.037Z,52.60
2023-03-07T20:26:08.605Z,51.93
2023-03-07T20:28:38.432Z,52.84
2023-03-07T20:31:06.730Z,52.52
2023-03-07T20:33:33.259Z,52.67
2023-03-07T20:36:05.585Z,51.90
2023-03-07T20:38:33.803Z,52.55
2023-03-07T20:41:06.316Z,51.95
2023-03-07T20:43:33.065Z,52.66
2023-03-07T20:46:12.894Z,50.49
2023-03-07T20:48:40.561Z,52.20
2023-03-07T20:51:13.015Z,51.60
2023-03-07T20:53:39.570Z,52.24
2023-03-07T20:56:06.537Z,51.82
2023-03-07T20:58:33.575Z,51.94
2023-03-07T21:01:00.903Z,51.77
2023-03-07T21:03:28.152Z,52.21
2023-03-07T21:05:55.987Z,51.80
2023-03-07T21:08:23.090Z,51.53
2023-03-07T21:11:03.293Z,49.35
2023-03-07T21:13:30.946Z,51.34
2023-03-07T21:16:01.812Z,50.43
2023-03-07T21:18:28.369Z,51.32
2023-03-07T21:21:02.959Z,49.69
2023-03-07T21:23:30.099Z,51.06
2023-03-07T21:26:15.136Z,47.97
2023-03-07T21:28:42.344Z,50.48
2023-03-07T21:31:15.222Z,50.96
2023-03-07T21:33:43.642Z,50.29
2023-03-07T21:36:13.806Z,50.02
2023-03-07T21:38:41.996Z,50.46
2023-03-07T21:41:09.109Z,50.14
2023-03-07T21:43:35.764Z,50.11
2023-03-07T21:46:08.136Z,48.83
2023-03-07T21:48:34.775Z,50.11
2023-03-07T21:51:02.076Z,50.18
2023-03-07T21:53:29.247Z,50.49
2023-03-07T21:56:10.427Z,49.04
2023-03-07T21:58:38.472Z,49.87
2023-03-07T22:01:24.891Z,48.16
2023-03-07T22:03:52.637Z,49.65
2023-03-07T22:06:19.413Z,49.57
2023-03-07T22:08:45.929Z,49.33
2023-03-07T22:11:13.380Z,49.78
2023-03-07T22:13:41.788Z,50.09
2023-03-07T22:16:12.465Z,48.85
2023-03-07T22:18:39.292Z,50.37
2023-03-07T22:21:10.908Z,50.28
2023-03-07T22:23:37.512Z,50.54
2023-03-07T22:26:09.737Z,49.46
2023-03-07T22:28:36.637Z,50.88
2023-03-07T22:31:05.708Z,50.29
2023-03-07T22:33:32.869Z,50.84
2023-03-07T22:36:01.359Z,50.73
2023-03-07T22:38:28.045Z,50.67
2023-03-07T22:41:03.705Z,48.63
2023-03-07T22:43:32.065Z,50.19
2023-03-07T22:45:58.874Z,50.72
2023-03-07T22:48:26.429Z,50.76
2023-03-07T22:50:53.280Z,50.61
2023-03-07T22:53:20.123Z,50.41
2023-03-07T22:55:46.733Z,50.33
2023-03-07T22:58:13.889Z,50.19
2023-03-07T23:00:41.994Z,49.73
2023-03-07T23:03:08.653Z,47.54
2023-03-07T23:05:36.087Z,50.47
2023-03-07T23:08:03.617Z,50.31
2023-03-07T23:10:31.001Z,50.12
2023-03-07T23:12:57.770Z,50.52
2023-03-07T23:15:24.888Z,50.40
2023-03-07T23:17:52.082Z,49.47
2023-03-07T23:20:19.182Z,50.14
2023-03-07T23:22:46.807Z,50.43
2023-03-07T23:25:13.745Z,50.57
2023-03-07T23:27:40.413Z,50.66
2023-03-07T23:30:07.322Z,50.24
2023-03-07T23:32:33.910Z,49.98
2023-03-07T23:35:00.583Z,49.36
2023-03-07T23:37:27.332Z,49.52
2023-03-07T23:39:53.860Z,49.84
2023-03-07T23:42:20.364Z,49.83
2023-03-07T23:44:49.885Z,49.63
2023-03-07T23:47:16.711Z,48.88
2023-03-07T23:49:43.211Z,49.75
2023-03-07T23:52:09.772Z,49.54
2023-03-07T23:54:36.262Z,49.46
2023-03-07T23:57:02.922Z,49.17
2023-03-07T23:59:29.446Z,49.33
